Time;durP1;ratioP1;P1;durP2;ratioP2;P2;SDS_P1;SDS_P2;PMS_P1;PMS_P2;Temp;Humidity;BMP_temperature;BMP_pressure;BME280_temperature;BME280_humidity;BME280_pressure;Samples;Min_cycle;Max_cycle;Signal;HPM_P1;HPM_P2
2022/04/15 00:01:54;;;;;;;33.20;29.70;;;;;;;10.70;49.25;98036.72;107708;1290;22933;-84
2022/04/15 00:04:22;;;;;;;33.30;29.50;;;;;;;10.67;49.39;98018.52;107691;1290;22209;-84
2022/04/15 00:06:51;;;;;;;31.90;28.50;;;;;;;10.81;49.01;98036.53;107432;1291;22933;-85
2022/04/15 00:09:20;;;;;;;31.10;27.50;;;;;;;10.89;48.70;98036.23;107558;1290;23061;-84
2022/04/15 00:11:49;;;;;;;32.90;28.60;;;;;;;10.97;48.78;98033.18;107497;1290;22440;-83
2022/04/15 00:14:17;;;;;;;32.10;27.60;;;;;;;11.07;48.70;98035.52;107643;1290;22265;-82
2022/04/15 00:16:46;;;;;;;31.10;27.10;;;;;;;11.16;48.46;98033.14;107639;1290;22348;-82
2022/04/15 00:19:15;;;;;;;31.20;27.00;;;;;;;11.25;48.46;98035.79;108102;1290;22328;-83
2022/04/15 00:21:45;;;;;;;32.30;29.10;;;;;;;11.33;48.31;98037.55;107474;1293;22172;-84
2022/04/15 00:24:13;;;;;;;32.60;27.50;;;;;;;11.40;48.36;98037.64;107660;1290;22195;-82
2022/04/15 00:26:45;;;;;;;33.70;28.40;;;;;;;11.46;48.35;98034.61;107775;1290;22221;-82
2022/04/15 00:29:18;;;;;;;34.20;29.40;;;;;;;11.42;47.97;98027.78;107661;1291;23117;-83
2022/04/15 00:31:45;;;;;;;37.70;30.70;;;;;;;11.54;47.75;98037.41;107879;1290;185624;-83
2022/04/15 00:34:13;;;;;;;34.60;30.40;;;;;;;11.59;47.68;98037.27;108016;1290;22534;-82
2022/04/15 00:36:41;;;;;;;33.80;30.20;;;;;;;11.62;47.52;98038.13;108014;1290;22361;-83
2022/04/15 00:39:09;;;;;;;35.70;30.80;;;;;;;11.62;47.44;98034.06;108024;1290;22425;-83
2022/04/15 00:41:40;;;;;;;35.50;31.40;;;;;;;11.63;47.52;98032.33;108042;1290;22501;-83
2022/04/15 00:44:09;;;;;;;32.60;29.10;;;;;;;11.63;47.47;98028.13;107990;1290;22302;-83
2022/04/15 00:46:37;;;;;;;36.20;30.90;;;;;;;11.61;47.46;98031.23;108006;1290;22454;-82
2022/04/15 00:49:05;;;;;;;34.60;31.00;;;;;;;11.59;47.44;98034.39;108025;1290;23027;-82
2022/04/15 00:51:35;;;;;;;34.60;30.90;;;;;;;11.57;47.57;98035.50;108015;1290;22365;-83
2022/04/15 00:54:05;;;;;;;41.60;30.30;;;;;;;11.55;47.46;98038.42;107697;1290;22375;-83
2022/04/15 00:56:36;;;;;;;35.50;31.70;;;;;;;11.52;47.55;98039.58;108003;1289;22248;-84
2022/04/15 00:59:05;;;;;;;35.00;31.30;;;;;;;11.48;47.52;98034.10;108010;1290;22445;-83
2022/04/15 01:01:33;;;;;;;35.30;30.90;;;;;;;11.44;47.54;98030.34;107863;1290;23421;-83
2022/04/15 01:04:03;;;;;;;34.90;30.30;;;;;;;11.41;47.69;98030.66;108007;1290;22488;-83
2022/04/15 01:06:31;;;;;;;32.60;29.10;;;;;;;11.39;47.65;98029.52;108005;1290;22524;-83
2022/04/15 01:09:01;;;;;;;33.20;28.20;;;;;;;11.35;47.67;98032.24;107682;1291;23583;-82
2022/04/15 01:11:33;;;;;;;31.80;28.20;;;;;;;11.31;48.05;98028.02;108014;1290;22405;-82
2022/04/15 01:14:02;;;;;;;31.10;27.50;;;;;;;11.27;48.28;98026.41;107635;1290;22355;-83
2022/04/15 01:16:33;;;;;;;32.90;28.30;;;;;;;11.24;48.06;98032.72;108020;1290;22323;-83
2022/04/15 01:19:01;;;;;;;36.00;27.40;;;;;;;11.21;48.27;98028.62;108002;1290;22480;-83
2022/04/15 01:21:31;;;;;;;30.40;26.70;;;;;;;11.19;48.30;98035.61;108008;1290;22325;-83
2022/04/15 01:23:59;;;;;;;32.10;27.00;;;;;;;11.18;48.18;98033.66;108024;1290;22248;-82
2022/04/15 01:26:27;;;;;;;32.30;27.10;;;;;;;11.15;48.53;98032.63;107987;1290;22420;-83
2022/04/15 01:28:55;;;;;;;32.10;26.30;;;;;;;11.15;48.68;98036.35;108032;1290;22357;-83
2022/04/15 01:31:27;;;;;;;30.90;25.20;;;;;;;11.13;48.57;98036.74;108106;1290;22297;-83
2022/04/15 01:33:55;;;;;;;26.00;23.20;;;;;;;11.13;48.92;98036.71;108050;1290;22442;-82
2022/04/15 01:36:23;;;;;;;27.10;24.20;;;;;;;11.11;48.93;98043.86;107992;1290;22465;-82
2022/04/15 01:38:51;;;;;;;26.60;23.70;;;;;;;11.09;48.92;98054.85;108001;1290;23028;-83
2022/04/15 01:41:19;;;;;;;28.60;23.80;;;;;;;11.05;49.60;98050.66;108013;1290;22439;-84
2022/04/15 01:43:47;;;;;;;26.70;22.80;;;;;;;11.02;49.40;98042.56;108015;1289;22367;-83
2022/04/15 01:46:15;;;;;;;27.40;22.90;;;;;;;10.99;49.44;98052.23;108033;1290;22811;-83
2022/04/15 01:48:43;;;;;;;26.50;22.60;;;;;;;10.92;49.69;98046.63;108009;1290;22448;-83
2022/04/15 01:51:11;;;;;;;24.50;22.00;;;;;;;10.87;50.19;98042.09;108432;1290;22329;-82
2022/04/15 01:53:38;;;;;;;28.80;22.50;;;;;;;10.84;49.99;98055.03;108396;1290;22278;-82
2022/04/15 01:56:06;;;;;;;23.30;20.90;;;;;;;10.83;49.90;98053.16;108417;1289;22332;-82
2022/04/15 01:58:35;;;;;;;27.70;22.30;;;;;;;10.81;50.00;98052.59;108124;1290;22377;-83
2022/04/15 02:01:03;;;;;;;24.60;22.00;;;;;;;10.79;50.23;98054.41;107952;1289;22968;-83
2022/04/15 02:03:31;;;;;;;24.30;21.70;;;;;;;10.78;50.39;98053.02;108082;1290;22313;-83
2022/04/15 02:05:59;;;;;;;24.60;21.90;;;;;;;10.76;50.39;98055.48;107792;1291;23104;-82
2022/04/15 02:08:27;;;;;;;25.00;22.40;;;;;;;10.75;50.40;98053.51;107951;1290;22204;-83
2022/04/15 02:10:55;;;;;;;29.90;23.00;;;;;;;10.73;50.59;98051.93;108031;1290;23190;-82
2022/04/15 02:13:22;;;;;;;26.20;23.10;;;;;;;10.71;51.72;98050.52;107683;1290;22327;-83
2022/04/15 02:15:50;;;;;;;26.00;22.30;;;;;;;10.67;52.04;98047.40;107691;1290;22140;-83
2022/04/15 02:18:18;;;;;;;26.80;23.20;;;;;;;10.62;51.77;98049.35;108006;1290;22950;-83
2022/04/15 02:20:53;;;;;;;28.70;23.70;;;;;;;10.56;52.40;98050.65;108008;1290;22284;-83
2022/04/15 02:23:21;;;;;;;28.20;25.20;;;;;;;10.49;52.32;98049.80;108008;1290;22381;-83
2022/04/15 02:25:48;;;;;;;28.20;25.10;;;;;;;10.42;52.56;98042.73;108007;1290;23265;-82
2022/04/15 02:28:16;;;;;;;29.40;26.30;;;;;;;10.37;52.86;98037.65;108031;1290;22450;-83
2022/04/15 02:30:47;;;;;;;28.90;25.80;;;;;;;10.33;52.80;98039.86;108021;1290;22429;-82
2022/04/15 02:33:15;;;;;;;28.40;25.40;;;;;;;10.28;52.66;98038.85;107702;1290;22434;-83
2022/04/15 02:35:43;;;;;;;30.40;27.30;;;;;;;10.28;52.86;98040.09;108001;1290;22284;-82
2022/04/15 02:38:11;;;;;;;30.00;26.90;;;;;;;10.28;53.12;98044.69;108026;1290;22460;-83
2022/04/15 02:40:39;;;;;;;32.80;29.50;;;;;;;10.28;53.19;98050.99;107983;1290;22309;-83
2022/04/15 02:43:07;;;;;;;32.30;28.80;;;;;;;10.27;53.50;98054.52;108001;1290;22340;-83
2022/04/15 02:45:35;;;;;;;35.20;29.30;;;;;;;10.26;53.52;98053.24;107970;1290;22474;-83
2022/04/15 02:48:03;;;;;;;32.60;29.20;;;;;;;10.24;53.44;98055.84;108028;1290;22418;-83
2022/04/15 02:50:31;;;;;;;33.90;30.40;;;;;;;10.24;53.66;98060.59;108006;1290;22379;-82
2022/04/15 02:52:59;;;;;;;35.70;30.00;;;;;;;10.24;53.73;98062.00;107914;1290;22433;-81
2022/04/15 02:55:28;;;;;;;33.60;30.30;;;;;;;10.23;53.53;98068.95;107911;1289;22555;-82
2022/04/15 02:57:56;;;;;;;39.00;35.30;;;;;;;10.22;53.48;98082.23;108021;1289;22387;-81
2022/04/15 03:00:24;;;;;;;40.60;36.30;;;;;;;10.20;53.77;98083.65;108016;1289;23054;-81
2022/04/15 03:02:51;;;;;;;41.80;37.70;;;;;;;10.18;54.01;98082.17;108046;1289;22332;-83
2022/04/15 03:05:19;;;;;;;41.80;37.80;;;;;;;10.17;54.39;98078.04;108008;1290;22447;-82
2022/04/15 03:07:47;;;;;;;42.20;38.10;;;;;;;10.16;54.04;98071.98;108011;1289;22247;-83
2022/04/15 03:10:15;;;;;;;46.20;41.40;;;;;;;10.16;54.29;98070.89;108010;1290;22532;-82
2022/04/15 03:12:43;;;;;;;44.80;40.30;;;;;;;10.15;54.76;98071.60;107687;1290;22442;-82
2022/04/15 03:15:10;;;;;;;45.00;40.60;;;;;;;10.14;54.78;98068.06;108020;1290;22349;-82
2022/04/15 03:17:38;;;;;;;46.30;41.10;;;;;;;10.12;54.59;98067.50;108002;1288;22372;-82
2022/04/15 03:20:08;;;;;;;42.70;38.30;;;;;;;10.13;54.95;98063.35;107913;1290;22502;-82
2022/04/15 03:22:37;;;;;;;41.00;36.80;;;;;;;10.17;55.22;98066.89;107996;1290;22407;-82
2022/04/15 03:25:07;;;;;;;40.10;36.00;;;;;;;10.22;56.85;98073.64;107989;1290;22606;-82
2022/04/15 03:27:35;;;;;;;41.20;37.00;;;;;;;10.26;57.09;98079.60;108002;1290;22210;-82
2022/04/15 03:30:04;;;;;;;41.40;35.30;;;;;;;10.30;57.06;98084.08;107678;1290;22537;-82
2022/04/15 03:32:32;;;;;;;41.10;36.80;;;;;;;10.34;58.78;98083.10;107671;1290;22298;-82
2022/04/15 03:35:00;;;;;;;40.20;36.00;;;;;;;10.39;58.39;98082.13;108001;1290;22373;-81
2022/04/15 03:37:28;;;;;;;40.50;36.30;;;;;;;10.40;58.66;98087.59;108017;1289;23150;-82
2022/04/15 03:39:56;;;;;;;37.80;34.20;;;;;;;10.44;58.63;98092.59;108018;1290;22512;-82
2022/04/15 03:42:24;;;;;;;38.20;34.70;;;;;;;10.49;59.07;98093.43;107998;1290;22325;-82
2022/04/15 03:44:52;;;;;;;38.60;34.80;;;;;;;10.54;58.38;98096.91;108001;1290;22441;-81
2022/04/15 03:47:19;;;;;;;38.90;35.20;;;;;;;10.58;59.15;98107.95;107964;1290;23247;-81
2022/04/15 03:49:47;;;;;;;39.80;36.20;;;;;;;10.61;59.09;98112.16;107668;1290;22530;-82
2022/04/15 03:52:15;;;;;;;38.60;34.80;;;;;;;10.62;58.78;98115.17;107986;1290;22377;-82
2022/04/15 03:54:43;;;;;;;37.40;33.80;;;;;;;10.64;59.50;98115.19;107667;1290;22471;-82
2022/04/15 03:57:11;;;;;;;34.60;31.10;;;;;;;10.66;58.65;98110.10;108025;1290;22522;-82
2022/04/15 03:59:39;;;;;;;32.60;29.50;;;;;;;10.69;59.58;98107.19;107987;1290;22277;-83
2022/04/15 04:02:06;;;;;;;32.90;29.70;;;;;;;10.72;60.59;98103.27;107997;1290;23297;-83
2022/04/15 04:04:34;;;;;;;33.80;30.60;;;;;;;10.74;61.94;98097.09;107983;1290;22367;-81
2022/04/15 04:07:02;;;;;;;34.80;31.40;;;;;;;10.73;62.04;98099.64;107645;1290;22357;-82
2022/04/15 04:09:30;;;;;;;35.70;32.40;;;;;;;10.73;63.36;98101.09;107994;1289;22539;-82
2022/04/15 04:11:58;;;;;;;32.90;29.50;;;;;;;10.74;63.13;98101.55;107992;1290;22288;-82
2022/04/15 04:14:27;;;;;;;33.20;29.80;;;;;;;10.76;63.21;98098.50;107653;1290;23103;-83
2022/04/15 04:16:55;;;;;;;34.90;31.40;;;;;;;10.77;63.29;98104.10;107997;1290;22395;-81
2022/04/15 04:19:23;;;;;;;32.70;29.10;;;;;;;10.75;62.72;98113.94;108025;1290;22306;-82
2022/04/15 04:21:50;;;;;;;30.60;27.50;;;;;;;10.77;62.13;98118.06;107724;1290;22385;-82
2022/04/15 04:24:18;;;;;;;29.40;26.60;;;;;;;10.79;62.02;98130.80;108011;1289;22373;-82
2022/04/15 04:26:46;;;;;;;29.40;26.40;;;;;;;10.81;62.64;98128.13;107671;1290;23062;-84
2022/04/15 04:29:14;;;;;;;26.30;23.50;;;;;;;10.80;62.90;98127.65;108005;1290;22477;-83
2022/04/15 04:31:42;;;;;;;29.00;26.10;;;;;;;10.83;63.36;98135.15;107575;1290;23006;-83
2022/04/15 04:34:10;;;;;;;28.90;26.30;;;;;;;10.83;62.78;98134.13;108023;1290;22423;-83
2022/04/15 04:36:38;;;;;;;30.30;24.70;;;;;;;10.84;62.01;98134.71;108009;1290;23014;-83
2022/04/15 04:39:09;;;;;;;30.20;23.40;;;;;;;10.84;62.33;98131.42;108032;1290;23067;-83
2022/04/15 04:41:38;;;;;;;27.00;23.40;;;;;;;10.86;63.62;98122.06;107601;1291;22418;-83
2022/04/15 04:44:06;;;;;;;26.80;24.10;;;;;;;10.87;64.26;98119.52;107994;1290;22185;-83
2022/04/15 04:46:35;;;;;;;26.50;22.70;;;;;;;10.89;62.92;98118.17;107687;1290;23117;-83
2022/04/15 04:49:03;;;;;;;35.50;24.30;;;;;;;10.89;63.42;98130.05;107996;1290;22479;-82
2022/04/15 04:51:31;;;;;;;26.00;23.20;;;;;;;10.84;64.13;98130.17;107997;1290;22348;-83
2022/04/15 04:53:59;;;;;;;27.50;23.60;;;;;;;10.80;64.30;98130.40;107985;1290;22464;-83
2022/04/15 04:56:27;;;;;;;24.60;22.10;;;;;;;10.76;64.19;98129.39;107994;1290;23080;-84
2022/04/15 04:58:54;;;;;;;25.90;23.10;;;;;;;10.70;64.27;98131.52;107992;1290;22281;-84
2022/04/15 05:01:22;;;;;;;26.30;23.50;;;;;;;10.64;64.73;98131.31;107678;1290;22296;-83
2022/04/15 05:03:50;;;;;;;26.30;23.50;;;;;;;10.58;64.92;98123.74;107989;1290;22386;-84
2022/04/15 05:06:18;;;;;;;31.20;22.50;;;;;;;10.57;64.39;98104.09;108008;1290;22453;-86
2022/04/15 05:08:46;;;;;;;29.40;25.00;;;;;;;10.61;64.13;98095.08;107686;1290;23189;-85
2022/04/15 05:11:14;;;;;;;29.30;26.20;;;;;;;10.64;63.97;98128.34;107700;1290;23080;-84
2022/04/15 05:13:42;;;;;;;26.70;24.00;;;;;;;10.61;64.86;98142.08;108045;1290;23194;-84
2022/04/15 05:16:10;;;;;;;26.80;24.20;;;;;;;10.56;64.64;98137.89;108008;1290;22338;-83
2022/04/15 05:18:38;;;;;;;27.20;24.50;;;;;;;10.56;64.77;98138.65;107999;1290;22365;-84
2022/04/15 05:21:05;;;;;;;26.20;23.40;;;;;;;10.60;65.19;98143.22;108008;1290;22261;-84
2022/04/15 05:23:33;;;;;;;27.80;24.40;;;;;;;10.66;65.17;98147.22;108002;1290;22337;-84
2022/04/15 05:26:01;;;;;;;31.00;27.50;;;;;;;10.72;65.16;98146.54;107985;1290;23169;-83
2022/04/15 05:28:31;;;;;;;27.50;24.50;;;;;;;10.75;65.20;98149.36;108006;1290;22505;-83
2022/04/15 05:30:59;;;;;;;25.70;23.20;;;;;;;10.74;65.12;98148.30;107996;1290;22348;-83
2022/04/15 05:33:28;;;;;;;26.20;23.40;;;;;;;10.69;65.48;98152.14;107675;1290;22733;-84
2022/04/15 05:35:56;;;;;;;27.20;24.40;;;;;;;10.65;65.48;98160.88;107980;1290;22299;-84
2022/04/15 05:38:23;;;;;;;25.90;23.30;;;;;;;10.64;65.55;98169.09;108008;1290;22404;-83
2022/04/15 05:40:51;;;;;;;46.10;41.80;;;;;;;10.63;65.77;98170.55;107992;1290;23226;-83
2022/04/15 05:43:21;;;;;;;58.20;51.90;;;;;;;10.63;66.18;98171.05;107678;1290;22275;-83
2022/04/15 05:45:49;;;;;;;59.10;52.60;;;;;;;10.63;66.30;98172.21;107987;1290;22752;-84
2022/04/15 05:48:17;;;;;;;50.80;45.50;;;;;;;10.59;66.41;98164.09;108009;1290;22474;-84
2022/04/15 05:50:45;;;;;;;33.10;29.60;;;;;;;10.58;67.56;98164.48;108012;1290;22476;-82
2022/04/15 05:53:16;;;;;;;37.40;31.70;;;;;;;10.57;67.58;98163.97;107907;1290;22317;-84
2022/04/15 05:55:43;;;;;;;44.60;36.40;;;;;;;10.55;68.82;98166.52;107998;1290;23016;-83
2022/04/15 05:58:11;;;;;;;44.40;39.70;;;;;;;10.52;68.18;98170.38;108031;1289;22286;-83
2022/04/15 06:00:39;;;;;;;49.70;44.70;;;;;;;10.52;68.28;98176.42;108027;1290;22420;-82
2022/04/15 06:03:07;;;;;;;52.70;47.90;;;;;;;10.47;68.50;98181.56;108001;1290;22407;-83
2022/04/15 06:05:36;;;;;;;54.10;49.00;;;;;;;10.41;69.13;98182.13;108019;1290;22457;-83
2022/04/15 06:08:04;;;;;;;46.90;42.80;;;;;;;10.38;68.95;98180.23;108015;1290;22446;-83
2022/04/15 06:10:32;;;;;;;51.10;46.50;;;;;;;10.37;69.07;98182.61;108009;1290;22280;-84
2022/04/15 06:13:03;;;;;;;56.00;50.90;;;;;;;10.36;69.21;98184.35;108019;1290;22349;-82
2022/04/15 06:15:32;;;;;;;47.20;42.90;;;;;;;10.35;69.69;98185.77;107998;1290;22443;-83
2022/04/15 06:18:01;;;;;;;40.60;36.60;;;;;;;10.33;69.87;98186.16;108021;1290;22741;-84
2022/04/15 06:20:30;;;;;;;34.40;31.40;;;;;;;10.29;71.33;98185.95;108009;1288;22365;-83
2022/04/15 06:22:58;;;;;;;34.10;31.10;;;;;;;10.26;70.99;98185.55;107935;1291;22462;-82
2022/04/15 06:25:26;;;;;;;29.10;26.50;;;;;;;10.26;71.23;98180.38;107641;1290;22427;-82
2022/04/15 06:27:54;;;;;;;27.70;25.10;;;;;;;10.25;71.63;98174.30;108019;1290;22262;-83
2022/04/15 06:30:22;;;;;;;29.20;26.60;;;;;;;10.23;71.46;98176.73;108003;1290;22439;-82
2022/04/15 06:32:52;;;;;;;32.60;29.80;;;;;;;10.22;72.26;98176.80;107672;1290;22321;-81
2022/04/15 06:35:20;;;;;;;32.00;29.00;;;;;;;10.20;71.55;98185.70;107996;1290;22271;-82
2022/04/15 06:37:47;;;;;;;27.70;25.10;;;;;;;10.18;72.18;98192.41;107550;1290;22322;-82
2022/04/15 06:40:18;;;;;;;29.80;27.10;;;;;;;10.18;71.79;98192.48;107669;1290;23172;-82
2022/04/15 06:42:46;;;;;;;28.20;25.40;;;;;;;10.19;71.53;98187.94;108003;1290;22583;-82
2022/04/15 06:45:14;;;;;;;33.00;30.10;;;;;;;10.24;72.29;98188.95;107976;1290;22505;-82
2022/04/15 06:47:42;;;;;;;36.20;32.90;;;;;;;10.27;71.92;98189.95;107972;1290;22493;-82
2022/04/15 06:50:10;;;;;;;34.60;31.40;;;;;;;10.25;72.37;98187.09;107905;1290;22966;-82
2022/04/15 06:52:38;;;;;;;32.50;29.30;;;;;;;10.27;72.42;98187.31;107991;1290;22363;-81
2022/04/15 06:55:07;;;;;;;30.30;27.60;;;;;;;10.29;73.74;98184.27;107987;1290;22320;-82
2022/04/15 06:57:35;;;;;;;30.30;27.50;;;;;;;10.31;73.23;98194.23;107911;1291;22241;-82
2022/04/15 07:00:05;;;;;;;35.00;31.70;;;;;;;10.31;73.65;98193.69;107677;1290;22170;-83
2022/04/15 07:02:34;;;;;;;34.60;31.10;;;;;;;10.30;73.97;98191.10;107658;1290;23131;-83
2022/04/15 07:05:03;;;;;;;33.70;30.30;;;;;;;10.30;73.72;98191.28;107985;1290;22262;-83
2022/04/15 07:07:31;;;;;;;36.90;32.90;;;;;;;10.32;74.02;98191.14;107876;1290;22459;-81
2022/04/15 07:09:58;;;;;;;33.40;30.10;;;;;;;10.33;74.50;98191.94;107993;1289;22359;-81
2022/04/15 07:12:26;;;;;;;41.90;35.00;;;;;;;10.35;74.39;98188.84;107980;1290;22495;-81
2022/04/15 07:14:56;;;;;;;38.50;34.70;;;;;;;10.33;76.91;98197.21;107983;1290;22547;-82
2022/04/15 07:17:24;;;;;;;34.90;31.90;;;;;;;10.31;76.27;98199.55;107988;1290;22277;-82
2022/04/15 07:19:52;;;;;;;35.20;32.00;;;;;;;10.27;75.63;98190.11;108021;1290;22282;-82
2022/04/15 07:22:21;;;;;;;35.20;31.90;;;;;;;10.31;75.54;98191.27;107905;1291;22418;-82
2022/04/15 07:24:49;;;;;;;38.20;34.70;;;;;;;10.32;75.81;98199.27;107994;1290;22345;-82
2022/04/15 07:27:18;;;;;;;38.00;34.70;;;;;;;10.31;75.23;98199.99;107704;1290;22234;-83
2022/04/15 07:29:47;;;;;;;38.50;34.70;;;;;;;10.30;75.87;98202.04;107414;1291;22355;-83
2022/04/15 07:32:27;;;;;;;37.70;34.40;;;;;;;10.31;75.65;98204.02;108014;1290;22430;-85
2022/04/15 07:34:54;;;;;;;38.90;35.60;;;;;;;10.32;76.23;98205.94;107576;1290;22317;-83
2022/04/15 07:37:22;;;;;;;41.70;38.00;;;;;;;10.34;76.23;98206.73;108025;1290;22256;-84
2022/04/15 07:39:50;;;;;;;40.40;37.10;;;;;;;10.35;76.62;98208.77;107575;1291;22278;-85
2022/04/15 07:42:18;;;;;;;45.40;41.60;;;;;;;10.34;78.07;98210.77;107980;1290;22673;-84
2022/04/15 07:44:46;;;;;;;41.50;37.80;;;;;;;10.32;77.80;98211.54;108034;1290;22327;-85
2022/04/15 07:47:15;;;;;;;38.50;35.10;;;;;;;10.30;78.07;98213.95;107601;1291;22457;-85
2022/04/15 07:49:59;;;;;;;37.80;34.50;;;;;;;10.29;78.50;98213.75;108006;1291;23110;-85
2022/04/15 07:52:27;;;;;;;36.60;33.20;;;;;;;10.30;78.23;98219.77;108041;1291;22439;-86
2022/04/15 07:54:55;;;;;;;40.30;36.50;;;;;;;10.30;79.45;98222.95;108335;1291;22386;-83
2022/04/15 07:57:27;;;;;;;42.10;38.70;;;;;;;10.30;78.94;98215.04;108344;1291;22306;-85
2022/04/15 07:59:55;;;;;;;48.40;44.40;;;;;;;10.30;78.89;98218.96;108334;1291;22327;-85
2022/04/15 08:02:23;;;;;;;52.30;47.90;;;;;;;10.32;78.14;98218.77;108058;1291;22187;-83
2022/04/15 08:04:51;;;;;;;47.40;43.60;;;;;;;10.35;78.00;98217.98;107828;1291;22378;-82
2022/04/15 08:07:19;;;;;;;50.80;46.50;;;;;;;10.38;78.66;98212.23;107545;1291;23783;-82
2022/04/15 08:09:47;;;;;;;56.10;50.70;;;;;;;10.41;78.41;98216.56;107842;1290;22360;-84
2022/04/15 08:12:15;;;;;;;53.50;48.40;;;;;;;10.44;78.38;98217.58;107844;1291;22356;-84
2022/04/15 08:14:43;;;;;;;65.40;58.30;;;;;;;10.49;78.77;98218.76;107855;1291;22323;-82
2022/04/15 08:17:11;;;;;;;55.80;50.10;;;;;;;10.51;79.32;98216.38;107825;1291;22268;-82
2022/04/15 08:19:39;;;;;;;82.90;68.00;;;;;;;10.51;78.98;98222.48;107837;1291;22268;-83
2022/04/15 08:22:09;;;;;;;50.90;45.90;;;;;;;10.52;78.61;98216.63;107548;1291;22734;-84
2022/04/15 08:24:42;;;;;;;83.30;72.80;;;;;;;10.56;78.57;98218.62;107818;1291;22504;-82
2022/04/15 08:27:10;;;;;;;127.00;87.50;;;;;;;10.61;78.49;98219.79;107854;1290;22339;-83
2022/04/15 08:29:42;;;;;;;96.40;77.20;;;;;;;10.64;78.67;98219.15;107869;1291;22371;-83
2022/04/15 08:32:10;;;;;;;45.40;41.30;;;;;;;10.67;78.53;98221.90;107628;1293;22717;-82
2022/04/15 08:34:38;;;;;;;36.40;33.40;;;;;;;10.69;78.91;98224.70;107945;1290;22268;-81
2022/04/15 08:37:06;;;;;;;35.50;32.60;;;;;;;10.72;79.04;98224.70;107778;1290;22464;-83
2022/04/15 08:39:34;;;;;;;36.10;33.10;;;;;;;10.74;79.33;98225.91;107731;1290;23219;-85
2022/04/15 08:42:03;;;;;;;42.20;38.70;;;;;;;10.76;79.26;98225.94;108033;1290;22539;-84
2022/04/15 08:44:31;;;;;;;44.10;40.30;;;;;;;10.80;79.05;98225.83;108028;1290;22423;-84
2022/04/15 08:47:02;;;;;;;37.30;34.30;;;;;;;10.81;79.89;98226.73;107873;1290;22522;-83
2022/04/15 08:49:30;;;;;;;50.60;45.30;;;;;;;10.79;79.46;98222.01;107977;1290;22465;-83
2022/04/15 08:51:59;;;;;;;33.50;30.50;;;;;;;10.83;79.56;98224.42;107844;1290;22252;-82
2022/04/15 08:54:27;;;;;;;35.40;32.50;;;;;;;10.86;80.05;98226.77;107715;1290;22527;-83
2022/04/15 08:56:55;;;;;;;34.60;31.50;;;;;;;10.87;79.88;98225.17;107992;1290;22410;-84
2022/04/15 08:59:23;;;;;;;36.10;33.20;;;;;;;10.89;80.05;98223.79;107719;1290;22280;-83
2022/04/15 09:01:51;;;;;;;35.60;32.70;;;;;;;10.88;80.81;98220.95;108011;1290;23149;-81
2022/04/15 09:04:19;;;;;;;28.40;26.00;;;;;;;10.85;81.71;98223.98;107979;1290;22364;-83
2022/04/15 09:06:55;;;;;;;51.10;46.40;;;;;;;10.81;80.81;98220.64;108010;1289;22482;-83
2022/04/15 09:09:30;;;;;;;29.20;26.60;;;;;;;10.81;80.53;98219.63;107997;1289;22280;-82
2022/04/15 09:12:03;;;;;;;28.50;26.10;;;;;;;10.81;81.01;98219.48;108057;1290;22368;-82
2022/04/15 09:14:31;;;;;;;29.10;26.50;;;;;;;10.80;80.74;98216.88;108016;1290;22290;-80
2022/04/15 09:17:01;;;;;;;34.00;30.90;;;;;;;10.78;81.23;98218.74;107772;1290;22490;-81
2022/04/15 09:19:29;;;;;;;26.80;24.50;;;;;;;10.73;81.28;98221.33;107970;1290;23050;-82
2022/04/15 09:21:58;;;;;;;25.50;23.00;;;;;;;10.72;81.38;98217.00;107667;1291;22442;-82
2022/04/15 09:24:34;;;;;;;23.20;21.30;;;;;;;10.77;81.93;98213.70;107645;1291;23319;-82
2022/04/15 09:27:06;;;;;;;23.40;21.60;;;;;;;10.83;82.73;98214.57;107541;1291;22397;-81
2022/04/15 09:29:41;;;;;;;23.10;20.90;;;;;;;10.87;82.88;98214.73;107790;1291;22359;-82
2022/04/15 09:32:14;;;;;;;22.30;20.50;;;;;;;10.93;82.92;98213.30;107816;1291;23193;-82
2022/04/15 09:34:55;;;;;;;24.10;22.10;;;;;;;10.98;83.93;98207.56;107834;1290;22300;-82
2022/04/15 09:37:29;;;;;;;21.00;19.10;;;;;;;11.01;82.80;98202.76;107758;1291;22398;-82
2022/04/15 09:40:16;;;;;;;19.20;17.50;;;;;;;11.09;83.04;98202.95;107540;1291;22267;-83
2022/04/15 09:42:46;;;;;;;19.20;17.50;;;;;;;11.13;82.90;98205.96;107818;1291;22505;-82
2022/04/15 09:45:18;;;;;;;22.10;20.20;;;;;;;11.20;83.10;98204.23;107696;1291;22245;-81
2022/04/15 09:48:01;;;;;;;23.40;21.40;;;;;;;11.24;82.52;98201.48;107795;1291;22556;-81
2022/04/15 09:50:29;;;;;;;23.30;21.20;;;;;;;11.32;82.79;98202.58;107765;1291;22412;-82
2022/04/15 09:53:20;;;;;;;25.20;23.00;;;;;;;11.34;82.63;98195.80;107725;1291;23059;-81
2022/04/15 09:55:52;;;;;;;20.00;18.30;;;;;;;11.41;82.45;98196.45;107416;1294;23334;-81
2022/04/15 09:58:23;;;;;;;13.80;12.50;;;;;;;11.34;83.44;98194.45;107785;1290;22354;-82
2022/04/15 10:00:51;;;;;;;14.40;13.10;;;;;;;11.33;82.82;98198.28;107470;1293;22462;-82
2022/04/15 10:03:24;;;;;;;15.30;13.80;;;;;;;11.34;83.29;98196.83;107672;1293;22279;-82
2022/04/15 10:05:55;;;;;;;14.80;13.40;;;;;;;11.35;83.08;98195.78;107726;1290;23403;-81
2022/04/15 10:08:25;;;;;;;13.70;12.40;;;;;;;11.46;83.00;98200.34;107812;1291;22365;-80
2022/04/15 10:10:55;;;;;;;14.10;12.80;;;;;;;11.56;83.71;98205.23;107812;1290;22433;-82
2022/04/15 10:13:27;;;;;;;12.10;10.90;;;;;;;11.62;83.63;98203.14;107788;1291;22397;-83
2022/04/15 10:15:56;;;;;;;14.60;13.10;;;;;;;11.71;83.78;98199.84;107848;1290;22523;-85
2022/04/15 10:18:25;;;;;;;11.20;10.20;;;;;;;11.90;83.42;98196.21;107801;1291;22481;-83
2022/04/15 10:20:53;;;;;;;14.10;12.80;;;;;;;12.16;83.72;98200.92;107829;1291;22208;-84
2022/04/15 10:23:22;;;;;;;10.40;9.30;;;;;;;12.46;83.97;98198.27;107596;1291;22342;-90
2022/04/15 10:25:52;;;;;;;10.30;9.30;;;;;;;12.60;83.11;98202.39;107811;1291;22460;-87
2022/04/15 10:28:37;;;;;;;10.50;9.50;;;;;;;12.61;82.30;98197.81;108130;1289;22413;-87
2022/04/15 10:31:07;;;;;;;;;;;;;;;12.61;81.99;98196.86;107936;1290;22491;-87
2022/04/15 10:33:36;;;;;;;10.30;9.00;;;;;;;12.63;81.79;98195.52;108101;1291;22534;-88
2022/04/15 10:36:13;;;;;;;10.60;9.60;;;;;;;12.62;81.30;98198.30;107909;1291;22445;-88
2022/04/15 10:39:06;;;;;;;10.20;7.70;;;;;;;12.54;81.11;98201.02;107824;1291;22523;-83
2022/04/15 10:41:43;;;;;;;9.80;8.80;;;;;;;12.47;80.58;98204.17;108177;1291;22473;-88
2022/04/15 10:44:25;;;;;;;9.70;8.70;;;;;;;12.38;80.69;98204.33;108235;1290;22448;-89
2022/04/15 10:46:59;;;;;;;8.70;7.90;;;;;;;12.29;80.68;98202.40;108020;1291;23004;-87
2022/04/15 10:49:33;;;;;;;11.10;9.20;;;;;;;12.30;81.00;98198.73;108001;1291;22384;-84
2022/04/15 10:52:17;;;;;;;11.80;10.70;;;;;;;12.34;80.69;98194.25;108223;1291;23205;-85
2022/04/15 10:54:48;;;;;;;12.50;11.30;;;;;;;12.41;80.92;98196.85;107663;1291;22289;-88
2022/04/15 10:57:17;;;;;;;10.40;9.50;;;;;;;12.48;80.57;98197.02;107616;1291;22473;-85
2022/04/15 11:01:13;;;;;;;8.90;8.00;;;;;;;12.52;80.53;98197.09;107971;1291;23001;-84
2022/04/15 11:02:50;;;;;;;7.90;7.10;;;;;;;12.63;79.88;98195.52;107872;1291;22464;-84
2022/04/15 11:05:54;;;;;;;8.30;6.10;;;;;;;12.69;79.67;98195.27;107833;1291;22412;-84
2022/04/15 11:08:24;;;;;;;7.20;6.50;;;;;;;12.68;79.50;98188.91;107663;1296;22313;-87
2022/04/15 11:11:03;;;;;;;9.60;8.60;;;;;;;12.77;79.74;98191.63;107739;1296;22429;-83
2022/04/15 11:13:40;;;;;;;7.40;6.20;;;;;;;12.96;79.46;98186.20;107734;1293;22432;-85
2022/04/15 11:16:10;;;;;;;7.40;6.00;;;;;;;13.06;79.09;98183.69;107691;1294;22647;-84
2022/04/15 11:18:46;;;;;;;8.40;6.60;;;;;;;13.17;78.94;98183.65;107536;1294;23297;-89
2022/04/15 11:21:27;;;;;;;9.80;8.80;;;;;;;13.27;78.29;98183.38;107429;1295;22401;-87